Time;durP1;ratioP1;P1;durP2;ratioP2;P2;SDS_P1;SDS_P2;PMS_P1;PMS_P2;Temp;Humidity;BMP_temperature;BMP_pressure;BME280_temperature;BME280_humidity;BME280_pressure;Samples;Min_cycle;Max_cycle;Signal;HPM_P1;HPM_P2
2023/12/27 00:00:58;;;;;;;18.77;8.40;;;;;;;;;;5114368;28;20043;-28
2023/12/27 00:03:23;;;;;;;17.17;8.10;;;;;;;;;;5113775;28;20469;-28
2023/12/27 00:05:48;;;;;;;17.83;7.88;;;;;;;;;;5114343;28;20245;-27
2023/12/27 00:08:13;;;;;;;18.98;8.02;;;;;;;;;;5114057;28;20022;-28
2023/12/27 00:10:38;;;;;;;18.47;8.00;;;;;;;;;;5095490;28;20020;-28
2023/12/27 00:13:03;;;;;;;14.90;7.40;;;;;;;;;;5113697;28;20326;-27
2023/12/27 00:15:29;;;;;;;16.40;7.35;;;;;;;;;;5113675;28;20068;-28
2023/12/27 00:17:54;;;;;;;16.33;7.30;;;;;;;;;;5113684;28;20030;-28
2023/12/27 00:20:19;;;;;;;17.88;7.65;;;;;;;;;;5113620;28;20265;-27
2023/12/27 00:22:44;;;;;;;14.57;6.33;;;;;;;;;;5114177;28;20015;-27
2023/12/27 00:25:09;;;;;;;19.63;6.87;;;;;;;;;;5113567;28;20620;-27
2023/12/27 00:27:34;;;;;;;18.10;8.00;;;;;;;;;;5113516;28;20257;-27
2023/12/27 00:30:00;;;;;;;15.60;7.37;;;;;;;;;;5113583;28;20669;-27
2023/12/27 00:32:25;;;;;;;15.50;7.17;;;;;;;;;;5114151;28;20267;-28
2023/12/27 00:34:50;;;;;;;14.70;6.75;;;;;;;;;;5113473;28;20268;-28
2023/12/27 00:37:15;;;;;;;13.13;6.33;;;;;;;;;;5113989;28;20026;-27
2023/12/27 00:39:41;;;;;;;12.85;6.35;;;;;;;;;;5113420;28;20812;-27
2023/12/27 00:42:06;;;;;;;14.30;6.80;;;;;;;;;;5113452;28;20008;-28
2023/12/27 00:44:31;;;;;;;15.13;6.40;;;;;;;;;;5113740;28;20012;-27
2023/12/27 00:46:56;;;;;;;16.00;6.70;;;;;;;;;;5116301;28;20023;-28
2023/12/27 00:49:22;;;;;;;14.07;6.05;;;;;;;;;;5117546;28;20309;-28
2023/12/27 00:51:47;;;;;;;14.80;7.13;;;;;;;;;;5117553;28;20458;-28
2023/12/27 00:54:12;;;;;;;14.97;6.20;;;;;;;;;;5117208;28;20502;-27
2023/12/27 00:56:38;;;;;;;11.55;6.32;;;;;;;;;;5117162;28;20250;-28
2023/12/27 00:59:03;;;;;;;11.23;5.85;;;;;;;;;;5116893;28;20432;-27
2023/12/27 01:01:31;;;;;;;15.98;5.50;;;;;;;;;;5116984;28;20034;-28
2023/12/27 01:03:56;;;;;;;11.98;5.63;;;;;;;;;;5117609;28;20015;-28
2023/12/27 01:06:22;;;;;;;11.82;5.75;;;;;;;;;;5116902;28;20030;-27
2023/12/27 01:08:47;;;;;;;12.55;5.45;;;;;;;;;;5116879;28;20071;-27
2023/12/27 01:11:12;;;;;;;11.07;5.75;;;;;;;;;;5117309;28;20426;-27
2023/12/27 01:13:37;;;;;;;11.40;5.72;;;;;;;;;;5116817;28;20359;-28
2023/12/27 01:16:03;;;;;;;12.07;5.80;;;;;;;;;;5116782;28;20076;-27
2023/12/27 01:18:28;;;;;;;13.60;6.22;;;;;;;;;;5116688;28;20246;-27
2023/12/27 01:20:53;;;;;;;14.48;5.82;;;;;;;;;;5117200;28;20012;-28
2023/12/27 01:23:18;;;;;;;13.27;5.93;;;;;;;;;;5117112;28;20059;-28
2023/12/27 01:25:44;;;;;;;14.47;6.30;;;;;;;;;;5116577;28;20522;-27
2023/12/27 01:28:09;;;;;;;13.48;6.05;;;;;;;;;;5116536;28;20263;-28
2023/12/27 01:30:35;;;;;;;11.60;5.87;;;;;;;;;;5117010;28;20015;-27
2023/12/27 01:33:01;;;;;;;15.82;6.65;;;;;;;;;;5116391;28;20265;-28
2023/12/27 01:35:26;;;;;;;16.40;6.45;;;;;;;;;;5116723;28;20027;-27
2023/12/27 01:37:51;;;;;;;14.55;5.93;;;;;;;;;;5116395;28;20355;-27
2023/12/27 01:40:17;;;;;;;15.73;6.60;;;;;;;;;;5116750;28;20049;-27
2023/12/27 01:42:42;;;;;;;14.37;6.37;;;;;;;;;;5116775;28;20595;-28
2023/12/27 01:45:07;;;;;;;15.13;6.23;;;;;;;;;;5116790;28;20246;-27
2023/12/27 01:47:33;;;;;;;16.17;6.55;;;;;;;;;;5116145;28;20635;-27
2023/12/27 01:49:59;;;;;;;15.75;6.72;;;;;;;;;;5116710;28;20011;-27
2023/12/27 01:52:24;;;;;;;16.42;6.65;;;;;;;;;;5116004;28;20475;-28
2023/12/27 01:54:49;;;;;;;13.88;6.82;;;;;;;;;;5116053;28;20058;-27
2023/12/27 01:57:14;;;;;;;16.90;6.68;;;;;;;;;;5116413;28;20098;-27
2023/12/27 01:59:40;;;;;;;17.65;6.85;;;;;;;;;;5115731;28;20402;-27
2023/12/27 02:02:05;;;;;;;18.55;7.40;;;;;;;;;;5115893;28;20020;-28
2023/12/27 02:04:30;;;;;;;17.48;7.55;;;;;;;;;;5115829;28;20031;-28
2023/12/27 02:06:55;;;;;;;18.42;7.50;;;;;;;;;;5115801;28;20069;-27
2023/12/27 02:09:21;;;;;;;19.23;8.00;;;;;;;;;;5115895;28;20023;-27
2023/12/27 02:11:46;;;;;;;23.73;8.85;;;;;;;;;;5097519;28;20420;-27
2023/12/27 02:14:11;;;;;;;17.98;8.55;;;;;;;;;;5116151;28;20072;-27
2023/12/27 02:16:37;;;;;;;18.30;8.73;;;;;;;;;;5116073;28;20055;-27
2023/12/27 02:19:04;;;;;;;20.85;8.35;;;;;;;;;;5115385;28;20272;-27
2023/12/27 02:21:29;;;;;;;20.05;8.35;;;;;;;;;;5116101;28;20015;-27
2023/12/27 02:23:58;;;;;;;23.48;7.97;;;;;;;;;;5115475;28;20024;-27
2023/12/27 02:26:23;;;;;;;21.50;8.25;;;;;;;;;;5115607;28;20054;-27
2023/12/27 02:28:48;;;;;;;24.75;8.40;;;;;;;;;;5115930;28;20023;-27
2023/12/27 02:31:13;;;;;;;19.30;7.95;;;;;;;;;;5115835;28;20020;-27
2023/12/27 02:33:40;;;;;;;13.60;7.57;;;;;;;;;;5115291;28;20386;-27
2023/12/27 02:36:05;;;;;;;17.63;7.60;;;;;;;;;;5115209;28;20250;-27
2023/12/27 02:38:30;;;;;;;16.88;7.80;;;;;;;;;;5115611;28;20526;-27
2023/12/27 02:40:55;;;;;;;20.60;8.63;;;;;;;;;;5115163;28;20471;-27
2023/12/27 02:43:21;;;;;;;19.55;8.02;;;;;;;;;;5115532;28;20246;-27
2023/12/27 02:45:46;;;;;;;20.73;8.05;;;;;;;;;;5115559;28;20015;-27
2023/12/27 02:48:11;;;;;;;19.63;7.90;;;;;;;;;;5115474;28;20061;-27
2023/12/27 02:50:36;;;;;;;20.50;7.83;;;;;;;;;;5115157;28;20281;-27
2023/12/27 02:53:01;;;;;;;17.65;8.07;;;;;;;;;;5114767;28;20273;-27
2023/12/27 02:55:27;;;;;;;18.88;8.30;;;;;;;;;;5115075;28;20020;-27
2023/12/27 02:57:53;;;;;;;25.77;8.43;;;;;;;;;;5115075;28;20055;-27
2023/12/27 03:00:18;;;;;;;18.60;8.15;;;;;;;;;;5114523;28;20119;-27
2023/12/27 03:02:43;;;;;;;21.75;8.07;;;;;;;;;;5114745;28;20011;-28
2023/12/27 03:05:08;;;;;;;15.37;8.00;;;;;;;;;;5114669;28;20020;-27
2023/12/27 03:07:33;;;;;;;20.07;7.80;;;;;;;;;;5114544;28;20724;-27
2023/12/27 03:09:59;;;;;;;20.13;8.27;;;;;;;;;;5114636;28;20245;-27
2023/12/27 03:12:24;;;;;;;19.17;8.02;;;;;;;;;;5114467;28;20272;-27
2023/12/27 03:14:50;;;;;;;17.00;7.90;;;;;;;;;;5114525;28;20033;-27
2023/12/27 03:17:15;;;;;;;15.38;8.35;;;;;;;;;;5114711;28;20019;-28
2023/12/27 03:19:40;;;;;;;17.48;7.93;;;;;;;;;;5114384;28;20027;-27
2023/12/27 03:22:05;;;;;;;17.70;8.13;;;;;;;;;;5114374;28;20102;-28
2023/12/27 03:24:31;;;;;;;23.17;8.40;;;;;;;;;;5114884;28;20019;-28
2023/12/27 03:26:56;;;;;;;18.20;7.60;;;;;;;;;;5114618;28;20058;-27
2023/12/27 03:29:21;;;;;;;17.37;7.73;;;;;;;;;;5114326;28;20103;-27
2023/12/27 03:31:46;;;;;;;22.40;8.60;;;;;;;;;;5114779;28;20249;-27
2023/12/27 03:34:11;;;;;;;23.60;8.23;;;;;;;;;;5114326;28;20479;-27
2023/12/27 03:36:37;;;;;;;21.20;8.33;;;;;;;;;;5114035;28;20463;-28
2023/12/27 03:39:02;;;;;;;19.53;8.53;;;;;;;;;;5114501;28;20312;-27
2023/12/27 03:41:27;;;;;;;23.45;8.20;;;;;;;;;;5113989;28;20855;-27
2023/12/27 03:43:58;;;;;;;21.53;8.30;;;;;;;;;;5114273;28;20042;-27
2023/12/27 03:46:23;;;;;;;16.90;8.20;;;;;;;;;;5114167;28;20257;-27
2023/12/27 03:48:48;;;;;;;16.13;8.43;;;;;;;;;;5113935;28;20144;-27
2023/12/27 03:51:13;;;;;;;18.93;8.40;;;;;;;;;;5114557;28;20249;-27
2023/12/27 03:53:38;;;;;;;18.80;8.00;;;;;;;;;;5114016;28;20714;-27
2023/12/27 03:56:08;;;;;;;23.63;9.47;;;;;;;;;;5114526;28;20022;-27
2023/12/27 03:58:33;;;;;;;21.83;8.25;;;;;;;;;;5113595;28;20277;-27
2023/12/27 04:00:59;;;;;;;20.02;8.55;;;;;;;;;;5113829;28;20050;-28
2023/12/27 04:03:24;;;;;;;21.20;8.48;;;;;;;;;;5113848;28;20011;-28
2023/12/27 04:05:50;;;;;;;19.13;8.10;;;;;;;;;;5113861;28;20102;-27
2023/12/27 04:08:15;;;;;;;19.23;8.57;;;;;;;;;;5114908;28;20299;-28
2023/12/27 04:10:40;;;;;;;21.13;9.17;;;;;;;;;;5113825;28;20548;-27
2023/12/27 04:13:05;;;;;;;18.33;8.33;;;;;;;;;;5113646;28;20344;-27
2023/12/27 04:15:30;;;;;;;18.83;8.48;;;;;;;;;;5114036;28;20769;-27
2023/12/27 04:17:55;;;;;;;16.77;8.33;;;;;;;;;;5113714;28;20519;-27
2023/12/27 04:20:21;;;;;;;14.77;8.02;;;;;;;;;;5113992;28;20269;-28
2023/12/27 04:22:46;;;;;;;16.57;8.03;;;;;;;;;;5117854;28;20466;-27
2023/12/27 04:25:11;;;;;;;18.52;8.05;;;;;;;;;;5118327;28;20298;-28
2023/12/27 04:27:38;;;;;;;20.08;9.05;;;;;;;;;;5118339;28;20443;-27
2023/12/27 04:30:03;;;;;;;18.50;8.77;;;;;;;;;;5117637;28;20018;-28
2023/12/27 04:32:28;;;;;;;19.67;8.00;;;;;;;;;;5099381;28;20028;-27
2023/12/27 04:34:54;;;;;;;16.23;8.10;;;;;;;;;;5117628;28;20047;-27
2023/12/27 04:37:19;;;;;;;18.83;8.70;;;;;;;;;;5117584;28;20254;-27
2023/12/27 04:39:44;;;;;;;17.27;7.90;;;;;;;;;;5117739;28;20280;-28
2023/12/27 04:42:09;;;;;;;19.85;8.48;;;;;;;;;;5117403;28;20257;-28
2023/12/27 04:44:34;;;;;;;16.58;8.43;;;;;;;;;;5117623;28;20019;-27
2023/12/27 04:47:00;;;;;;;23.00;8.83;;;;;;;;;;5117823;28;20027;-27
2023/12/27 04:49:25;;;;;;;24.38;8.70;;;;;;;;;;5117313;28;20356;-27
2023/12/27 04:51:50;;;;;;;25.60;8.63;;;;;;;;;;5117314;28;20022;-28
2023/12/27 04:54:15;;;;;;;30.33;10.33;;;;;;;;;;5117192;28;20340;-27
2023/12/27 04:56:40;;;;;;;24.05;8.77;;;;;;;;;;5117414;28;20249;-28
2023/12/27 04:59:06;;;;;;;18.73;8.57;;;;;;;;;;5116916;28;20047;-27
2023/12/27 05:01:31;;;;;;;20.40;9.23;;;;;;;;;;5117094;28;20054;-28
2023/12/27 05:03:56;;;;;;;21.40;9.00;;;;;;;;;;5117030;28;20249;-27
2023/12/27 05:06:21;;;;;;;18.50;8.60;;;;;;;;;;5116974;28;20020;-27
2023/12/27 05:08:47;;;;;;;19.85;8.30;;;;;;;;;;5117500;28;20242;-28
2023/12/27 05:11:13;;;;;;;21.95;9.13;;;;;;;;;;5117087;28;20454;-27
2023/12/27 05:13:39;;;;;;;20.73;8.75;;;;;;;;;;5117613;28;20102;-28
2023/12/27 05:16:11;;;;;;;22.40;8.65;;;;;;;;;;5116765;28;20018;-28
2023/12/27 05:18:39;;;;;;;22.85;8.77;;;;;;;;;;5117319;28;20015;-28
2023/12/27 05:21:05;;;;;;;24.13;9.65;;;;;;;;;;5117311;28;20044;-28
2023/12/27 05:23:30;;;;;;;28.92;9.40;;;;;;;;;;5116942;28;20058;-27
2023/12/27 05:25:55;;;;;;;22.30;9.07;;;;;;;;;;5117185;28;20085;-28
2023/12/27 05:28:21;;;;;;;30.30;8.90;;;;;;;;;;5116611;28;20278;-28
2023/12/27 05:30:46;;;;;;;24.92;9.10;;;;;;;;;;5117095;28;20250;-28
2023/12/27 05:33:11;;;;;;;20.02;8.50;;;;;;;;;;5116564;28;20058;-27
2023/12/27 05:35:36;;;;;;;29.17;11.00;;;;;;;;;;5117027;28;20041;-28
2023/12/27 05:38:02;;;;;;;35.47;8.82;;;;;;;;;;5116943;28;20254;-28
2023/12/27 05:40:27;;;;;;;20.02;9.25;;;;;;;;;;5116170;28;20027;-28
2023/12/27 05:42:52;;;;;;;21.90;8.57;;;;;;;;;;5116901;28;20016;-27
2023/12/27 05:45:17;;;;;;;19.60;8.57;;;;;;;;;;5116299;28;20027;-28
2023/12/27 05:47:42;;;;;;;27.40;9.98;;;;;;;;;;5098634;28;20302;-28
2023/12/27 05:50:09;;;;;;;28.17;9.60;;;;;;;;;;5116139;28;20054;-28
2023/12/27 05:52:34;;;;;;;25.85;9.32;;;;;;;;;;5116025;28;20262;-28
2023/12/27 05:54:59;;;;;;;20.52;8.98;;;;;;;;;;5116668;28;20025;-28
2023/12/27 05:57:24;;;;;;;27.33;8.77;;;;;;;;;;5116605;28;20062;-28
2023/12/27 05:59:51;;;;;;;28.03;8.93;;;;;;;;;;5115948;28;20760;-28
2023/12/27 06:02:16;;;;;;;25.10;8.43;;;;;;;;;;5116141;28;20302;-27
2023/12/27 06:04:41;;;;;;;20.80;8.23;;;;;;;;;;5115891;28;20405;-28
2023/12/27 06:07:07;;;;;;;24.00;9.07;;;;;;;;;;5116068;28;20337;-28
2023/12/27 06:09:32;;;;;;;24.40;8.25;;;;;;;;;;5097781;28;20265;-28
2023/12/27 06:11:57;;;;;;;24.05;8.02;;;;;;;;;;5115967;28;20493;-27
2023/12/27 06:14:23;;;;;;;19.10;7.88;;;;;;;;;;5116461;28;20017;-28
2023/12/27 06:16:48;;;;;;;24.58;8.50;;;;;;;;;;5116235;28;20020;-27
2023/12/27 06:19:13;;;;;;;20.30;8.23;;;;;;;;;;5116058;28;20019;-28
2023/12/27 06:21:38;;;;;;;32.92;9.30;;;;;;;;;;5115471;28;20265;-28
2023/12/27 06:24:04;;;;;;;29.23;8.23;;;;;;;;;;5116072;28;20016;-27
2023/12/27 06:26:30;;;;;;;23.23;8.48;;;;;;;;;;5116012;28;20747;-28
2023/12/27 06:28:55;;;;;;;22.10;8.65;;;;;;;;;;5115388;28;20073;-27
2023/12/27 06:31:20;;;;;;;26.47;7.83;;;;;;;;;;5115959;28;20024;-28
2023/12/27 06:33:45;;;;;;;26.80;7.95;;;;;;;;;;5115572;28;20721;-28
2023/12/27 06:36:10;;;;;;;18.70;7.25;;;;;;;;;;5115825;28;20023;-28
2023/12/27 06:38:36;;;;;;;22.13;7.72;;;;;;;;;;5115436;28;20016;-28
2023/12/27 06:41:02;;;;;;;23.20;8.07;;;;;;;;;;5115728;28;20023;-27
2023/12/27 06:43:28;;;;;;;26.27;7.68;;;;;;;;;;5115085;28;20026;-28
2023/12/27 06:45:53;;;;;;;25.50;7.77;;;;;;;;;;5115602;28;20007;-28
2023/12/27 06:48:18;;;;;;;18.70;7.83;;;;;;;;;;5115545;28;20286;-27
2023/12/27 06:50:44;;;;;;;21.00;7.15;;;;;;;;;;5115238;28;20278;-28
2023/12/27 06:53:09;;;;;;;18.48;7.60;;;;;;;;;;5115456;28;20015;-27
2023/12/27 06:55:34;;;;;;;18.57;8.00;;;;;;;;;;5115744;28;20401;-27
2023/12/27 06:58:00;;;;;;;22.27;7.70;;;;;;;;;;5115424;28;20267;-27
2023/12/27 07:00:25;;;;;;;22.13;7.85;;;;;;;;;;5114492;28;20772;-27
2023/12/27 07:02:50;;;;;;;19.48;7.70;;;;;;;;;;5115316;28;20080;-28
2023/12/27 07:05:16;;;;;;;18.60;7.13;;;;;;;;;;5114675;28;20016;-28
2023/12/27 07:07:41;;;;;;;19.38;7.43;;;;;;;;;;5114724;28;20419;-27
2023/12/27 07:10:06;;;;;;;20.67;6.53;;;;;;;;;;5114697;28;20055;-28
2023/12/27 07:12:31;;;;;;;20.20;7.22;;;;;;;;;;5114452;28;20050;-27
2023/12/27 07:14:57;;;;;;;15.73;7.20;;;;;;;;;;5114559;28;20038;-28
2023/12/27 07:17:23;;;;;;;22.67;7.55;;;;;;;;;;5114944;28;20315;-27
2023/12/27 07:19:49;;;;;;;17.98;6.38;;;;;;;;;;5114694;28;20343;-28
2023/12/27 07:22:14;;;;;;;25.77;7.22;;;;;;;;;;5114686;28;20064;-28
2023/12/27 07:24:39;;;;;;;20.77;6.60;;;;;;;;;;5114680;28;20008;-27
2023/12/27 07:27:04;;;;;;;20.73;6.73;;;;;;;;;;5114311;28;20016;-28
2023/12/27 07:29:30;;;;;;;19.35;6.72;;;;;;;;;;5115349;28;20269;-28
2023/12/27 07:31:55;;;;;;;23.60;7.50;;;;;;;;;;5114527;28;20458;-28
2023/12/27 07:34:21;;;;;;;18.70;6.95;;;;;;;;;;5114177;28;20027;-28
2023/12/27 07:36:47;;;;;;;18.75;7.55;;;;;;;;;;5114189;28;20028;-28
2023/12/27 07:39:13;;;;;;;16.92;6.63;;;;;;;;;;5114383;28;20152;-27
2023/12/27 07:41:38;;;;;;;16.98;7.30;;;;;;;;;;5114440;28;20023;-28
2023/12/27 07:44:04;;;;;;;24.93;7.43;;;;;;;;;;5114028;28;20518;-27
2023/12/27 07:46:29;;;;;;;20.23;7.18;;;;;;;;;;5114046;28;20302;-27
2023/12/27 07:48:54;;;;;;;19.83;6.43;;;;;;;;;;5114584;28;20033;-27
2023/12/27 07:51:19;;;;;;;23.70;7.45;;;;;;;;;;5114547;28;20254;-28
2023/12/27 07:53:44;;;;;;;15.00;5.70;;;;;;;;;;5095772;28;20111;-28
2023/12/27 07:56:12;;;;;;;21.63;6.57;;;;;;;;;;5113772;28;20287;-27
2023/12/27 07:58:37;;;;;;;26.55;6.60;;;;;;;;;;5095387;28;20772;-28
2023/12/27 08:01:02;;;;;;;16.33;6.53;;;;;;;;;;5113904;28;20023;-28
2023/12/27 08:03:27;;;;;;;21.48;6.55;;;;;;;;;;5113272;28;20012;-28
2023/12/27 08:05:53;;;;;;;19.30;6.68;;;;;;;;;;5114120;28;20024;-28
2023/12/27 08:08:18;;;;;;;16.48;6.28;;;;;;;;;;5095463;28;20024;-28
2023/12/27 08:10:43;;;;;;;19.90;6.38;;;;;;;;;;5114043;28;20102;-27
2023/12/27 08:13:08;;;;;;;21.63;6.67;;;;;;;;;;5113644;28;20015;-27
2023/12/27 08:15:33;;;;;;;20.63;6.40;;;;;;;;;;5114232;28;20333;-28
2023/12/27 08:17:59;;;;;;;20.27;6.57;;;;;;;;;;5095511;28;20016;-28
2023/12/27 08:20:24;;;;;;;17.50;5.73;;;;;;;;;;5113628;28;20277;-28
2023/12/27 08:22:49;;;;;;;15.65;5.93;;;;;;;;;;5113621;28;20285;-28
2023/12/27 08:25:15;;;;;;;15.15;6.38;;;;;;;;;;5114211;28;20020;-28
2023/12/27 08:27:40;;;;;;;16.63;6.45;;;;;;;;;;5113609;28;20069;-28
2023/12/27 08:30:06;;;;;;;15.38;5.88;;;;;;;;;;5113893;28;20020;-28
2023/12/27 08:32:31;;;;;;;16.38;6.20;;;;;;;;;;5114154;28;20135;-28
2023/12/27 08:34:57;;;;;;;15.50;6.30;;;;;;;;;;5113541;28;20094;-28
2023/12/27 08:37:22;;;;;;;14.47;5.73;;;;;;;;;;5114099;28;20096;-28
2023/12/27 08:39:48;;;;;;;11.98;5.32;;;;;;;;;;5113404;28;20276;-28
2023/12/27 08:42:13;;;;;;;12.02;6.55;;;;;;;;;;5113795;28;20015;-28
2023/12/27 08:44:38;;;;;;;12.35;5.68;;;;;;;;;;5113512;28;20016;-28
2023/12/27 08:47:03;;;;;;;9.70;5.15;;;;;;;;;;5113385;28;20016;-27
2023/12/27 08:49:29;;;;;;;11.23;5.50;;;;;;;;;;5113743;28;20055;-28
2023/12/27 08:51:54;;;;;;;10.32;4.85;;;;;;;;;;5113342;28;20732;-27
2023/12/27 08:54:19;;;;;;;10.13;5.40;;;;;;;;;;5113678;28;20019;-28
2023/12/27 08:56:45;;;;;;;10.07;5.37;;;;;;;;;;5113403;28;20095;-28
2023/12/27 08:59:10;;;;;;;11.25;5.30;;;;;;;;;;5113179;28;20301;-27
2023/12/27 09:01:35;;;;;;;9.55;5.57;;;;;;;;;;5113888;28;20027;-28
2023/12/27 09:04:01;;;;;;;11.35;5.40;;;;;;;;;;5113336;28;20023;-28
2023/12/27 09:06:26;;;;;;;11.73;6.00;;;;;;;;;;5113644;28;20429;-28
2023/12/27 09:08:51;;;;;;;10.00;5.70;;;;;;;;;;5117473;28;20254;-27
2023/12/27 09:11:18;;;;;;;10.97;4.90;;;;;;;;;;5116923;28;20616;-28
2023/12/27 09:13:43;;;;;;;11.93;6.07;;;;;;;;;;5117185;28;20265;-28
2023/12/27 09:16:08;;;;;;;14.48;8.20;;;;;;;;;;5117415;28;20023;-28
2023/12/27 09:18:33;;;;;;;14.10;7.17;;;;;;;;;;5116811;28;20049;-28
2023/12/27 09:20:59;;;;;;;9.53;5.97;;;;;;;;;;5116605;28;20609;-28
2023/12/27 09:23:24;;;;;;;9.32;4.93;;;;;;;;;;5117125;28;20257;-27
2023/12/27 09:25:49;;;;;;;5.73;4.10;;;;;;;;;;5116434;28;20023;-28
2023/12/27 09:28:14;;;;;;;8.30;4.15;;;;;;;;;;5117561;28;20281;-27
2023/12/27 09:30:40;;;;;;;6.07;4.30;;;;;;;;;;5098429;28;20019;-28
2023/12/27 09:33:05;;;;;;;7.68;4.75;;;;;;;;;;5116472;28;20274;-28
2023/12/27 09:35:31;;;;;;;7.35;4.88;;;;;;;;;;5116990;28;20034;-28
2023/12/27 09:37:56;;;;;;;13.07;5.72;;;;;;;;;;5116704;28;20101;-28
2023/12/27 09:40:21;;;;;;;10.30;4.70;;;;;;;;;;5116284;28;20411;-28
2023/12/27 09:42:48;;;;;;;9.50;5.28;;;;;;;;;;5116279;28;20269;-28
2023/12/27 09:45:14;;;;;;;9.15;5.03;;;;;;;;;;5116280;28;20022;-28
2023/12/27 09:47:40;;;;;;;9.73;5.15;;;;;;;;;;5098123;28;20024;-27
2023/12/27 09:50:06;;;;;;;8.63;4.85;;;;;;;;;;5116200;28;20022;-28
2023/12/27 09:52:33;;;;;;;6.97;4.93;;;;;;;;;;5116666;28;20106;-27
2023/12/27 09:54:58;;;;;;;10.52;5.60;;;;;;;;;;5116334;28;20471;-28
2023/12/27 09:57:25;;;;;;;7.93;5.43;;;;;;;;;;5116077;28;20034;-28
2023/12/27 09:59:51;;;;;;;9.00;6.10;;;;;;;;;;5115934;28;20299;-27
2023/12/27 10:02:19;;;;;;;13.68;6.32;;;;;;;;;;5116560;28;20012;-28
2023/12/27 10:04:47;;;;;;;10.27;6.20;;;;;;;;;;5115902;28;20054;-28
2023/12/27 10:07:14;;;;;;;9.57;6.70;;;;;;;;;;5116108;28;20016;-29
2023/12/27 10:09:39;;;;;;;10.70;6.30;;;;;;;;;;5116568;28;20072;-28
2023/12/27 10:12:07;;;;;;;10.77;6.88;;;;;;;;;;5115715;28;20102;-27
2023/12/27 10:14:33;;;;;;;8.77;6.35;;;;;;;;;;5116179;28;20024;-27
2023/12/27 10:16:58;;;;;;;10.93;6.70;;;;;;;;;;5115628;28;20012;-28
2023/12/27 10:19:37;;;;;;;8.30;6.20;;;;;;;;;;5115577;28;20023;-27
2023/12/27 10:22:02;;;;;;;13.63;6.72;;;;;;;;;;5115543;28;20019;-28
2023/12/27 10:24:27;;;;;;;9.65;6.90;;;;;;;;;;5115807;28;20023;-28
2023/12/27 10:26:55;;;;;;;9.33;6.70;;;;;;;;;;5115487;28;20367;-28
2023/12/27 10:29:21;;;;;;;13.00;7.28;;;;;;;;;;5115391;28;20253;-27
2023/12/27 10:31:47;;;;;;;10.05;6.57;;;;;;;;;;5115648;28;20028;-28
2023/12/27 10:34:12;;;;;;;10.45;6.05;;;;;;;;;;5115876;28;20024;-29
2023/12/27 10:36:39;;;;;;;12.27;7.10;;;;;;;;;;5115270;28;20062;-27
2023/12/27 10:39:06;;;;;;;9.80;6.80;;;;;;;;;;5115433;28;20281;-28
2023/12/27 10:41:34;;;;;;;11.70;6.63;;;;;;;;;;5115477;28;20012;-28
2023/12/27 10:44:00;;;;;;;11.95;6.80;;;;;;;;;;5115438;28;20016;-28
2023/12/27 10:46:25;;;;;;;10.23;6.35;;;;;;;;;;5115363;28;20079;-28
2023/12/27 10:48:52;;;;;;;9.47;6.87;;;;;;;;;;5115059;28;20463;-28
2023/12/27 10:51:17;;;;;;;9.70;6.38;;;;;;;;;;5114987;28;20812;-28
2023/12/27 10:53:43;;;;;;;9.73;6.85;;;;;;;;;;5115573;28;20019;-28
2023/12/27 10:56:08;;;;;;;9.98;6.80;;;;;;;;;;5114893;28;20012;-28
2023/12/27 10:58:34;;;;;;;12.85;7.00;;;;;;;;;;5115201;28;20012;-28
2023/12/27 11:00:59;;;;;;;10.25;6.70;;;;;;;;;;5115022;28;20055;-27
2023/12/27 11:03:25;;;;;;;10.63;6.20;;;;;;;;;;5114788;28;20087;-28
2023/12/27 11:05:51;;;;;;;12.10;6.00;;;;;;;;;;5114792;28;20019;-28
2023/12/27 11:08:17;;;;;;;10.10;6.70;;;;;;;;;;5114663;28;20530;-27
2023/12/27 11:10:44;;;;;;;11.52;6.78;;;;;;;;;;5115153;28;20024;-27
2023/12/27 11:13:11;;;;;;;12.10;6.50;;;;;;;;;;5114849;28;20024;-28
2023/12/27 11:15:39;;;;;;;9.15;6.40;;;;;;;;;;5114771;28;20015;-28
2023/12/27 11:18:05;;;;;;;9.43;5.90;;;;;;;;;;5114746;28;20370;-28
2023/12/27 11:20:31;;;;;;;11.15;6.22;;;;;;;;;;5114366;28;20075;-28
2023/12/27 11:22:57;;;;;;;11.32;6.50;;;;;;;;;;5114983;28;20011;-28
2023/12/27 11:25:22;;;;;;;9.07;6.20;;;;;;;;;;5114326;28;20015;-28
2023/12/27 11:27:47;;;;;;;9.23;6.00;;;;;;;;;;5114884;28;20098;-28
2023/12/27 11:30:13;;;;;;;9.63;6.43;;;;;;;;;;5113808;28;20100;-28
2023/12/27 11:32:42;;;;;;;12.68;6.28;;;;;;;;;;5114575;28;20023;-28
2023/12/27 11:35:08;;;;;;;9.77;6.28;;;;;;;;;;5114462;28;20020;-27
2023/12/27 11:37:33;;;;;;;10.32;5.60;;;;;;;;;;5114721;28;20040;-28
2023/12/27 11:39:58;;;;;;;11.13;6.20;;;;;;;;;;5114665;28;20084;-28
2023/12/27 11:42:24;;;;;;;11.50;6.30;;;;;;;;;;5114051;28;20015;-28
2023/12/27 11:44:53;;;;;;;9.82;6.07;;;;;;;;;;5114378;28;20250;-28
2023/12/27 11:47:19;;;;;;;9.00;6.20;;;;;;;;;;5113991;28;20020;-28
2023/12/27 11:50:03;;;;;;;11.98;5.72;;;;;;;;;;5113971;28;20023;-28
2023/12/27 11:52:28;;;;;;;9.50;6.15;;;;;;;;;;5114504;28;20051;-28
2023/12/27 11:54:53;;;;;;;8.43;6.13;;;;;;;;;;5114509;28;20076;-28
2023/12/27 11:57:18;;;;;;;8.68;5.60;;;;;;;;;;5114436;28;20102;-28
2023/12/27 11:59:54;;;;;;;8.43;5.72;;;;;;;;;;5113673;28;20044;-28
2023/12/27 12:02:22;;;;;;;13.82;5.55;;;;;;;;;;5113905;28;20099;-28
2023/12/27 12:04:53;;;;;;;10.80;5.80;;;;;;;;;;5114119;28;20023;-28
2023/12/27 12:07:33;;;;;;;11.10;5.63;;;;;;;;;;5114126;28;20397;-28
2023/12/27 12:09:59;;;;;;;7.53;5.18;;;;;;;;;;5114081;28;20454;-28
2023/12/27 12:12:25;;;;;;;10.63;5.50;;;;;;;;;;5113616;28;20035;-28
2023/12/27 12:14:51;;;;;;;7.07;4.82;;;;;;;;;;5114285;28;20027;-28
2023/12/27 12:17:16;;;;;;;8.38;4.80;;;;;;;;;;5114003;28;20050;-28
2023/12/27 12:19:42;;;;;;;9.68;5.43;;;;;;;;;;5113599;28;20462;-28
2023/12/27 12:22:07;;;;;;;9.77;5.07;;;;;;;;;;5113909;28;20026;-28
2023/12/27 12:24:32;;;;;;;8.70;4.60;;;;;;;;;;5114151;28;20049;-28
2023/12/27 12:26:59;;;;;;;8.35;5.10;;;;;;;;;;5113537;28;20008;-28
2023/12/27 12:29:24;;;;;;;8.27;4.97;;;;;;;;;;5113790;28;20381;-28
2023/12/27 12:31:50;;;;;;;6.57;4.55;;;;;;;;;;5113880;28;20011;-29
2023/12/27 12:34:15;;;;;;;8.07;4.68;;;;;;;;;;5114113;28;20026;-28
2023/12/27 12:36:40;;;;;;;6.95;4.57;;;;;;;;;;5114084;28;20050;-28
2023/12/27 12:39:05;;;;;;;8.57;4.50;;;;;;;;;;5114012;28;20043;-27
2023/12/27 12:41:31;;;;;;;7.03;4.20;;;;;;;;;;5114786;28;20466;-28
2023/12/27 12:43:56;;;;;;;7.47;4.50;;;;;;;;;;5117494;28;20466;-28
2023/12/27 12:46:21;;;;;;;7.57;4.55;;;;;;;;;;5117441;28;20095;-28
2023/12/27 12:48:46;;;;;;;8.13;4.43;;;;;;;;;;5117684;28;20463;-28
2023/12/27 12:51:15;;;;;;;7.70;4.20;;;;;;;;;;5099102;28;20027;-28
2023/12/27 12:53:40;;;;;;;8.05;4.70;;;;;;;;;;5117594;28;20268;-28
2023/12/27 12:56:06;;;;;;;7.13;3.90;;;;;;;;;;5117550;28;20370;-28
2023/12/27 12:58:35;;;;;;;8.05;4.45;;;;;;;;;;5117067;28;20481;-28
2023/12/27 13:01:00;;;;;;;11.48;4.68;;;;;;;;;;5117074;28;20016;-31
2023/12/27 13:03:26;;;;;;;12.82;4.38;;;;;;;;;;5098786;28;20016;-28
2023/12/27 13:05:52;;;;;;;10.15;4.18;;;;;;;;;;5117096;28;20018;-28
2023/12/27 13:08:17;;;;;;;7.68;4.40;;;;;;;;;;5117321;28;20477;-28
2023/12/27 13:10:42;;;;;;;10.13;4.27;;;;;;;;;;5117042;28;20386;-28
2023/12/27 13:13:07;;;;;;;8.30;4.47;;;;;;;;;;5116803;28;20261;-27
2023/12/27 13:15:32;;;;;;;8.73;4.15;;;;;;;;;;5116801;28;20258;-28
2023/12/27 13:17:58;;;;;;;10.07;4.82;;;;;;;;;;5116822;28;20351;-28
2023/12/27 13:20:23;;;;;;;7.57;4.60;;;;;;;;;;5116974;28;20012;-27
2023/12/27 13:22:48;;;;;;;9.25;4.20;;;;;;;;;;5116710;28;20040;-28
2023/12/27 13:25:14;;;;;;;11.55;4.45;;;;;;;;;;5116699;28;20374;-28
2023/12/27 13:27:40;;;;;;;10.23;4.60;;;;;;;;;;5116872;28;20023;-28
2023/12/27 13:30:05;;;;;;;13.87;5.13;;;;;;;;;;5117192;28;20023;-28
2023/12/27 13:32:30;;;;;;;10.68;4.60;;;;;;;;;;5117064;28;20293;-27
2023/12/27 13:34:55;;;;;;;8.98;5.00;;;;;;;;;;5116449;28;20463;-27
2023/12/27 13:37:21;;;;;;;8.48;4.25;;;;;;;;;;5116668;28;20057;-28
2023/12/27 13:39:47;;;;;;;10.43;4.32;;;;;;;;;;5116357;28;20019;-27
2023/12/27 13:42:12;;;;;;;12.70;5.10;;;;;;;;;;5116409;28;20065;-28
2023/12/27 13:44:38;;;;;;;7.43;4.40;;;;;;;;;;5116904;28;20099;-27
2023/12/27 13:47:03;;;;;;;13.43;4.68;;;;;;;;;;5116536;28;20754;-28
2023/12/27 13:49:28;;;;;;;9.27;4.30;;;;;;;;;;5116506;28;20059;-28
2023/12/27 13:51:54;;;;;;;10.10;4.50;;;;;;;;;;5116703;28;20019;-28
2023/12/27 13:54:19;;;;;;;11.63;4.47;;;;;;;;;;5116020;28;20068;-28
2023/12/27 13:56:45;;;;;;;7.43;4.20;;;;;;;;;;5116562;28;20054;-28
2023/12/27 13:59:10;;;;;;;10.57;4.53;;;;;;;;;;5115792;28;20043;-28
2023/12/27 14:01:39;;;;;;;9.27;4.20;;;;;;;;;;5115953;28;20016;-28
2023/12/27 14:04:06;;;;;;;11.85;4.38;;;;;;;;;;5116162;28;20398;-27
2023/12/27 14:06:32;;;;;;;13.70;4.53;;;;;;;;;;5116040;28;20463;-27
2023/12/27 14:08:57;;;;;;;10.10;4.50;;;;;;;;;;5115691;28;20034;-28
2023/12/27 14:11:23;;;;;;;11.83;4.70;;;;;;;;;;5115693;28;20415;-27
2023/12/27 14:13:48;;;;;;;10.63;4.32;;;;;;;;;;5097374;28;20276;-28
2023/12/27 14:16:13;;;;;;;8.77;4.60;;;;;;;;;;5115576;28;20068;-28
2023/12/27 14:18:38;;;;;;;11.70;4.88;;;;;;;;;;5116129;28;20348;-28
2023/12/27 14:21:03;;;;;;;13.23;4.77;;;;;;;;;;5115544;28;20059;-27
2023/12/27 14:23:29;;;;;;;9.77;4.30;;;;;;;;;;5115618;28;20751;-28